Juneau International Airport
PAJN : rendu visible

Aérodrome :











RETROUVEZ-NOUS SUR...

 
LOGIN :

S'inscrire | Disclaimer

   EN    FR    IT 

 









Légende :    VFR   VFR Marginal   IFR   IFR Intensif   IFR Très Intensif
Visi : 
Plafond : 
>= 8 km
>= 3000ft
5 à 8 km
1000 à 3000 ft
1500m à 5 km
500 à 1000 ft
800 à 1500m
200 à 500 ft
< 800m
< 200 ft
Symboles :   Orages  Brouillard  Fortes neiges  Fortes précipitations  Vent > 20 kt






- Altitude de l'aérodrome : 21 ft
- Code IATA : JNU


PAJN - Juneau International

DERNIER METAR :
  • 271253Z 00000KT 10SM MIFG FEW000 FEW044 04/02 A3031 RMK AO2 SLP264 MIFG FEW000 MIFG E T00390022 $

METARs EXPIRÉS :
  • 271153Z 00000KT 10SM FEW045 04/02 A3032 RMK AO2 SLP267 FEW V SCT 70001 T00390022 10089 20028 58000 $
  • 271053Z 00000KT 10SM SCT045 04/03 A3032 RMK AO2 SLP268 T00440033 $

TAF PAJN
Valide du 27 à 12h jusqu'au 28 à 12h UTC


271120Z 2712/2812 13003KT P6SM SCT040
TEMPO 2712/2716 3SM BR FEW002 SCT050
FM272000 22011KT P6SM SKC
FM280600 VRB04KT P6SM SKC
FIR PAZA / Amérique du Nord



MET'MAP, la Météo Aéronautique d'un coup d'oeil ! - Copyright ORBIFLY Décembre 2007 - Disclaimer

ORBIFLY MET'MAP TEAM :

Programmation & Développement : Alexandra Zaïnal
Sur une idée originale de : Baudouin d'Aumeries
Assistance à la programmation : Marc-Olivier Méhu
Soutien technique & logistique : Manuel Goepfert

Contact : metmap@orbifly.com




SOURCES & CREDITS :

   NOAA       Earth
Advisory